sensor_id;sensor_type;location;lat;lon;timestamp;pressure;altitude;pressure_sealevel;temperature;humidity
30708;BME280;17458;48.958;8.284;2024-01-30T00:00:44;101790.41;;;5.66;65.06
30708;BME280;17458;48.958;8.284;2024-01-30T00:03:28;101787.09;;;5.58;65.61
30708;BME280;17458;48.958;8.284;2024-01-30T00:06:13;101782.91;;;5.60;65.21
30708;BME280;17458;48.958;8.284;2024-01-30T00:08:57;101785.78;;;5.63;64.40
30708;BME280;17458;48.958;8.284;2024-01-30T00:11:41;101778.13;;;5.38;64.98
30708;BME280;17458;48.958;8.284;2024-01-30T00:14:26;101791.78;;;5.33;64.91
30708;BME280;17458;48.958;8.284;2024-01-30T00:17:10;101795.22;;;5.32;65.14
30708;BME280;17458;48.958;8.284;2024-01-30T00:19:54;101793.28;;;5.40;65.02
30708;BME280;17458;48.958;8.284;2024-01-30T00:22:38;101792.38;;;5.40;65.37
30708;BME280;17458;48.958;8.284;2024-01-30T00:25:23;101786.59;;;5.44;64.91
30708;BME280;17458;48.958;8.284;2024-01-30T00:28:07;101789.63;;;5.48;64.07
30708;BME280;17458;48.958;8.284;2024-01-30T00:30:52;101793.00;;;5.56;64.36
30708;BME280;17458;48.958;8.284;2024-01-30T00:33:36;101801.88;;;5.48;64.52
30708;BME280;17458;48.958;8.284;2024-01-30T00:36:20;101807.09;;;5.38;65.37
30708;BME280;17458;48.958;8.284;2024-01-30T00:39:07;101804.25;;;5.26;64.92
30708;BME280;17458;48.958;8.284;2024-01-30T00:41:56;101798.91;;;5.34;64.67
30708;BME280;17458;48.958;8.284;2024-01-30T00:44:40;101805.66;;;5.22;64.53
30708;BME280;17458;48.958;8.284;2024-01-30T00:47:24;101797.28;;;5.26;64.38
30708;BME280;17458;48.958;8.284;2024-01-30T00:50:08;101805.66;;;5.22;64.40
30708;BME280;17458;48.958;8.284;2024-01-30T00:52:53;101805.44;;;5.11;64.80
30708;BME280;17458;48.958;8.284;2024-01-30T00:55:36;101803.09;;;5.14;64.57
30708;BME280;17458;48.958;8.284;2024-01-30T00:58:20;101799.97;;;5.18;64.60
30708;BME280;17458;48.958;8.284;2024-01-30T01:01:04;101797.19;;;5.16;65.09
30708;BME280;17458;48.958;8.284;2024-01-30T01:03:48;101792.34;;;5.21;65.75
30708;BME280;17458;48.958;8.284;2024-01-30T01:06:32;101794.41;;;5.33;65.91
30708;BME280;17458;48.958;8.284;2024-01-30T01:09:16;101787.81;;;5.47;66.13
30708;BME280;17458;48.958;8.284;2024-01-30T01:12:01;101783.97;;;5.44;65.63
30708;BME280;17458;48.958;8.284;2024-01-30T01:14:46;101789.31;;;4.89;66.90
30708;BME280;17458;48.958;8.284;2024-01-30T01:17:29;101795.16;;;4.95;68.91
30708;BME280;17458;48.958;8.284;2024-01-30T01:20:13;101798.38;;;5.20;67.41
30708;BME280;17458;48.958;8.284;2024-01-30T01:22:58;101790.75;;;5.31;66.74
30708;BME280;17458;48.958;8.284;2024-01-30T01:25:42;101794.22;;;5.41;67.05
30708;BME280;17458;48.958;8.284;2024-01-30T01:28:26;101793.13;;;5.39;66.54
30708;BME280;17458;48.958;8.284;2024-01-30T01:31:11;101790.38;;;5.37;65.95
30708;BME280;17458;48.958;8.284;2024-01-30T01:33:55;101799.34;;;5.39;66.32
30708;BME280;17458;48.958;8.284;2024-01-30T01:36:39;101790.78;;;5.23;66.17
30708;BME280;17458;48.958;8.284;2024-01-30T01:39:23;101796.16;;;5.33;65.70
30708;BME280;17458;48.958;8.284;2024-01-30T01:42:08;101791.00;;;5.34;66.13
30708;BME280;17458;48.958;8.284;2024-01-30T01:44:52;101784.31;;;5.38;65.86
30708;BME280;17458;48.958;8.284;2024-01-30T01:47:36;101784.75;;;5.43;65.35
30708;BME280;17458;48.958;8.284;2024-01-30T01:50:21;101785.72;;;5.34;65.47
30708;BME280;17458;48.958;8.284;2024-01-30T01:53:07;101781.13;;;5.32;65.84
30708;BME280;17458;48.958;8.284;2024-01-30T01:55:52;101782.09;;;5.24;65.38
30708;BME280;17458;48.958;8.284;2024-01-30T01:58:37;101779.63;;;5.25;65.23
30708;BME280;17458;48.958;8.284;2024-01-30T02:01:23;101775.13;;;5.24;65.04
30708;BME280;17458;48.958;8.284;2024-01-30T02:04:09;101782.09;;;5.24;64.78
30708;BME280;17458;48.958;8.284;2024-01-30T02:06:53;101784.81;;;5.15;64.35
30708;BME280;17458;48.958;8.284;2024-01-30T02:09:37;101783.66;;;5.03;64.49
30708;BME280;17458;48.958;8.284;2024-01-30T02:12:21;101776.44;;;4.92;65.09
30708;BME280;17458;48.958;8.284;2024-01-30T02:15:05;101781.56;;;4.90;64.98
30708;BME280;17458;48.958;8.284;2024-01-30T02:17:51;101783.53;;;4.74;65.26
30708;BME280;17458;48.958;8.284;2024-01-30T02:20:35;101788.97;;;4.94;65.36
30708;BME280;17458;48.958;8.284;2024-01-30T02:23:24;101787.38;;;5.05;64.82
30708;BME280;17458;48.958;8.284;2024-01-30T02:26:09;101786.69;;;4.61;66.69
30708;BME280;17458;48.958;8.284;2024-01-30T02:28:56;101787.25;;;4.40;67.59
30708;BME280;17458;48.958;8.284;2024-01-30T02:31:40;101786.31;;;4.76;66.53
30708;BME280;17458;48.958;8.284;2024-01-30T02:34:25;101789.81;;;4.85;66.20
30708;BME280;17458;48.958;8.284;2024-01-30T02:37:09;101782.97;;;4.87;65.45
30708;BME280;17458;48.958;8.284;2024-01-30T02:39:53;101788.00;;;4.75;65.60
30708;BME280;17458;48.958;8.284;2024-01-30T02:42:37;101780.91;;;4.74;65.96
30708;BME280;17458;48.958;8.284;2024-01-30T02:45:21;101782.38;;;4.81;65.64
30708;BME280;17458;48.958;8.284;2024-01-30T02:48:05;101788.59;;;4.81;65.07
30708;BME280;17458;48.958;8.284;2024-01-30T02:50:49;101790.59;;;4.84;65.43
30708;BME280;17458;48.958;8.284;2024-01-30T02:53:33;101784.72;;;4.78;64.82
30708;BME280;17458;48.958;8.284;2024-01-30T02:56:17;101783.38;;;4.73;64.47
30708;BME280;17458;48.958;8.284;2024-01-30T02:59:01;101781.91;;;4.85;64.58
30708;BME280;17458;48.958;8.284;2024-01-30T03:01:45;101779.97;;;4.74;64.64
30708;BME280;17458;48.958;8.284;2024-01-30T03:04:30;101789.50;;;4.82;64.42
30708;BME280;17458;48.958;8.284;2024-01-30T03:07:13;101780.75;;;4.73;64.65
30708;BME280;17458;48.958;8.284;2024-01-30T03:09:58;101789.06;;;4.77;64.44
30708;BME280;17458;48.958;8.284;2024-01-30T03:12:42;101789.97;;;4.78;64.18
30708;BME280;17458;48.958;8.284;2024-01-30T03:15:26;101782.44;;;4.72;64.79
30708;BME280;17458;48.958;8.284;2024-01-30T03:18:10;101783.69;;;4.67;64.78
30708;BME280;17458;48.958;8.284;2024-01-30T03:20:54;101789.97;;;4.78;65.14
30708;BME280;17458;48.958;8.284;2024-01-30T03:23:38;101782.91;;;4.77;64.69
30708;BME280;17458;48.958;8.284;2024-01-30T03:26:22;101788.09;;;4.85;64.66
30708;BME280;17458;48.958;8.284;2024-01-30T03:29:05;101793.84;;;4.81;64.71
30708;BME280;17458;48.958;8.284;2024-01-30T03:31:50;101790.19;;;4.71;64.55
30708;BME280;17458;48.958;8.284;2024-01-30T03:34:34;101792.06;;;4.72;64.34
30708;BME280;17458;48.958;8.284;2024-01-30T03:37:18;101792.50;;;4.76;63.99
30708;BME280;17458;48.958;8.284;2024-01-30T03:40:02;101783.69;;;4.76;64.06
30708;BME280;17458;48.958;8.284;2024-01-30T03:42:47;101783.16;;;4.80;64.41
30708;BME280;17458;48.958;8.284;2024-01-30T03:45:31;101785.56;;;4.68;64.59
30708;BME280;17458;48.958;8.284;2024-01-30T03:48:15;101782.25;;;4.79;64.28
30708;BME280;17458;48.958;8.284;2024-01-30T03:50:59;101786.31;;;4.76;64.60
30708;BME280;17458;48.958;8.284;2024-01-30T03:53:43;101782.16;;;4.69;63.65
30708;BME280;17458;48.958;8.284;2024-01-30T03:56:27;101785.09;;;4.63;64.07
30708;BME280;17458;48.958;8.284;2024-01-30T03:59:10;101781.69;;;4.64;64.50
30708;BME280;17458;48.958;8.284;2024-01-30T04:01:54;101788.19;;;4.68;64.58
30708;BME280;17458;48.958;8.284;2024-01-30T04:04:38;101787.75;;;4.63;64.99
30708;BME280;17458;48.958;8.284;2024-01-30T04:07:22;101799.94;;;4.72;65.01
30708;BME280;17458;48.958;8.284;2024-01-30T04:10:07;101790.66;;;4.75;64.86
30708;BME280;17458;48.958;8.284;2024-01-30T04:12:51;101786.03;;;4.64;64.87
30708;BME280;17458;48.958;8.284;2024-01-30T04:15:35;101785.38;;;4.75;64.42
30708;BME280;17458;48.958;8.284;2024-01-30T04:18:19;101783.38;;;4.73;64.55
30708;BME280;17458;48.958;8.284;2024-01-30T04:21:03;101781.31;;;4.79;64.73
30708;BME280;17458;48.958;8.284;2024-01-30T04:23:48;101783.63;;;4.84;65.01
30708;BME280;17458;48.958;8.284;2024-01-30T04:26:32;101787.94;;;4.84;65.08
30708;BME280;17458;48.958;8.284;2024-01-30T04:29:16;101785.31;;;4.84;65.19
30708;BME280;17458;48.958;8.284;2024-01-30T04:32:00;101785.81;;;4.80;65.05
30708;BME280;17458;48.958;8.284;2024-01-30T04:34:43;101787.03;;;4.83;65.11
30708;BME280;17458;48.958;8.284;2024-01-30T04:37:27;101792.75;;;4.79;64.45
30708;BME280;17458;48.958;8.284;2024-01-30T04:40:12;101789.06;;;4.77;64.66
30708;BME280;17458;48.958;8.284;2024-01-30T04:42:56;101788.00;;;4.75;64.83
30708;BME280;17458;48.958;8.284;2024-01-30T04:45:40;101784.31;;;4.73;64.33
30708;BME280;17458;48.958;8.284;2024-01-30T04:48:24;101784.94;;;4.71;64.17
30708;BME280;17458;48.958;8.284;2024-01-30T04:51:08;101782.22;;;4.60;64.51
30708;BME280;17458;48.958;8.284;2024-01-30T04:53:52;101780.59;;;4.71;64.24
30708;BME280;17458;48.958;8.284;2024-01-30T04:56:36;101772.63;;;4.61;64.54
30708;BME280;17458;48.958;8.284;2024-01-30T04:59:20;101782.16;;;4.69;64.35
30708;BME280;17458;48.958;8.284;2024-01-30T05:02:04;101784.84;;;4.60;64.57
30708;BME280;17458;48.958;8.284;2024-01-30T05:04:48;101788.41;;;4.52;64.45
30708;BME280;17458;48.958;8.284;2024-01-30T05:07:32;101790.09;;;4.60;64.63
30708;BME280;17458;48.958;8.284;2024-01-30T05:10:15;101784.22;;;4.54;65.07
30708;BME280;17458;48.958;8.284;2024-01-30T05:12:59;101785.31;;;4.56;64.50
30708;BME280;17458;48.958;8.284;2024-01-30T05:15:43;101795.84;;;4.20;65.11
30708;BME280;17458;48.958;8.284;2024-01-30T05:18:27;101793.25;;;4.48;64.87
30708;BME280;17458;48.958;8.284;2024-01-30T05:21:11;101794.19;;;4.48;64.79
30708;BME280;17458;48.958;8.284;2024-01-30T05:23:55;101794.19;;;4.48;65.26
30708;BME280;17458;48.958;8.284;2024-01-30T05:26:39;101791.56;;;4.48;64.92
30708;BME280;17458;48.958;8.284;2024-01-30T05:29:23;101792.81;;;4.43;65.29
30708;BME280;17458;48.958;8.284;2024-01-30T05:32:08;101793.13;;;4.38;65.72
30708;BME280;17458;48.958;8.284;2024-01-30T05:34:52;101798.06;;;4.43;65.06
30708;BME280;17458;48.958;8.284;2024-01-30T05:37:36;101800.50;;;4.50;64.76
30708;BME280;17458;48.958;8.284;2024-01-30T05:40:20;101800.94;;;4.55;64.29
30708;BME280;17458;48.958;8.284;2024-01-30T05:43:04;101798.69;;;4.41;64.73
30708;BME280;17458;48.958;8.284;2024-01-30T05:45:48;101800.84;;;4.36;64.73
30708;BME280;17458;48.958;8.284;2024-01-30T05:48:32;101811.09;;;4.33;65.16
30708;BME280;17458;48.958;8.284;2024-01-30T05:51:16;101812.50;;;4.30;65.06
30708;BME280;17458;48.958;8.284;2024-01-30T05:54:00;101815.44;;;4.33;65.04
30708;BME280;17458;48.958;8.284;2024-01-30T05:56:47;101813.38;;;4.39;63.90
30708;BME280;17458;48.958;8.284;2024-01-30T05:59:31;101813.38;;;4.39;64.61
30708;BME280;17458;48.958;8.284;2024-01-30T06:02:15;101820.34;;;4.38;64.91
30708;BME280;17458;48.958;8.284;2024-01-30T06:04:59;101818.81;;;4.40;64.61
30708;BME280;17458;48.958;8.284;2024-01-30T06:07:43;101811.88;;;4.32;64.59
30708;BME280;17458;48.958;8.284;2024-01-30T06:10:27;101819.78;;;4.32;64.72
30708;BME280;17458;48.958;8.284;2024-01-30T06:13:11;101816.06;;;4.30;64.68
30708;BME280;17458;48.958;8.284;2024-01-30T06:15:55;101808.78;;;4.27;64.68
30708;BME280;17458;48.958;8.284;2024-01-30T06:18:38;101804.63;;;4.30;64.75
30708;BME280;17458;48.958;8.284;2024-01-30T06:21:23;101807.88;;;4.27;64.42
30708;BME280;17458;48.958;8.284;2024-01-30T06:24:07;101804.63;;;4.30;64.61
30708;BME280;17458;48.958;8.284;2024-01-30T06:26:51;101810.66;;;4.28;64.35
30708;BME280;17458;48.958;8.284;2024-01-30T06:29:35;101804.63;;;4.30;64.42
30708;BME280;17458;48.958;8.284;2024-01-30T06:32:19;101799.19;;;4.28;64.86
30708;BME280;17458;48.958;8.284;2024-01-30T06:35:03;101805.69;;;4.32;64.91
30708;BME280;17458;48.958;8.284;2024-01-30T06:37:47;101804.56;;;4.38;64.71
30708;BME280;17458;48.958;8.284;2024-01-30T06:40:31;101798.75;;;4.23;64.73
30708;BME280;17458;48.958;8.284;2024-01-30T06:43:15;101811.88;;;4.23;65.29
30708;BME280;17458;48.958;8.284;2024-01-30T06:45:59;101805.53;;;4.30;64.67
30708;BME280;17458;48.958;8.284;2024-01-30T06:48:43;101809.72;;;4.28;65.17
30708;BME280;17458;48.958;8.284;2024-01-30T06:51:28;101806.63;;;4.32;65.19
30708;BME280;17458;48.958;8.284;2024-01-30T06:54:12;101808.31;;;4.32;65.09
30708;BME280;17458;48.958;8.284;2024-01-30T06:56:56;101812.16;;;4.35;64.91
30708;BME280;17458;48.958;8.284;2024-01-30T06:59:40;101814.25;;;4.20;65.57
30708;BME280;17458;48.958;8.284;2024-01-30T07:02:27;101819.88;;;4.42;64.73
30708;BME280;17458;48.958;8.284;2024-01-30T07:05:11;101818.50;;;4.37;65.42
30708;BME280;17458;48.958;8.284;2024-01-30T07:07:55;101825.09;;;4.51;65.42
30708;BME280;17458;48.958;8.284;2024-01-30T07:10:38;101813.91;;;4.35;65.54
30708;BME280;17458;48.958;8.284;2024-01-30T07:13:22;101820.34;;;4.38;65.27
30708;BME280;17458;48.958;8.284;2024-01-30T07:16:06;101814.34;;;4.31;65.20
30708;BME280;17458;48.958;8.284;2024-01-30T07:18:50;101822.97;;;4.38;64.70
30708;BME280;17458;48.958;8.284;2024-01-30T07:21:34;101826.38;;;4.46;64.95
30708;BME280;17458;48.958;8.284;2024-01-30T07:24:18;101814.16;;;4.46;64.84
30708;BME280;17458;48.958;8.284;2024-01-30T07:27:02;101829.75;;;4.53;64.88
30708;BME280;17458;48.958;8.284;2024-01-30T07:29:47;101825.19;;;4.70;64.48
30708;BME280;17458;48.958;8.284;2024-01-30T07:32:31;101825.91;;;4.77;63.79
30708;BME280;17458;48.958;8.284;2024-01-30T07:35:15;101829.03;;;4.73;64.34
30708;BME280;17458;48.958;8.284;2024-01-30T07:37:59;101829.59;;;4.88;64.54
30708;BME280;17458;48.958;8.284;2024-01-30T07:40:43;101835.16;;;4.91;63.96
30708;BME280;17458;48.958;8.284;2024-01-30T07:43:27;101830.47;;;4.97;64.20
30708;BME280;17458;48.958;8.284;2024-01-30T07:46:11;101833.31;;;4.90;65.11
30708;BME280;17458;48.958;8.284;2024-01-30T07:48:55;101838.06;;;4.94;65.34
30708;BME280;17458;48.958;8.284;2024-01-30T07:51:41;101834.75;;;5.05;65.67
30708;BME280;17458;48.958;8.284;2024-01-30T07:54:25;101846.72;;;5.20;64.92
30708;BME280;17458;48.958;8.284;2024-01-30T07:57:09;101842.25;;;5.19;64.85
30708;BME280;17458;48.958;8.284;2024-01-30T07:59:53;101845.53;;;5.35;65.28
30708;BME280;17458;48.958;8.284;2024-01-30T08:02:38;101838.94;;;5.49;64.70
30708;BME280;17458;48.958;8.284;2024-01-30T08:05:22;101841.72;;;5.69;64.53
30708;BME280;17458;48.958;8.284;2024-01-30T08:08:06;101849.03;;;5.82;64.29
30708;BME280;17458;48.958;8.284;2024-01-30T08:10:50;101847.34;;;5.83;64.98
30708;BME280;17458;48.958;8.284;2024-01-30T08:13:34;101852.78;;;6.03;65.00
30708;BME280;17458;48.958;8.284;2024-01-30T08:16:18;101854.81;;;6.16;65.08
30708;BME280;17458;48.958;8.284;2024-01-30T08:19:02;101850.41;;;6.35;64.69
30708;BME280;17458;48.958;8.284;2024-01-30T08:21:47;101852.81;;;6.42;64.26
30708;BME280;17458;48.958;8.284;2024-01-30T08:24:31;101849.44;;;6.53;64.79
30708;BME280;17458;48.958;8.284;2024-01-30T08:27:14;101849.44;;;6.63;65.25
30708;BME280;17458;48.958;8.284;2024-01-30T08:29:58;101852.66;;;6.80;65.12
30708;BME280;17458;48.958;8.284;2024-01-30T08:32:42;101853.47;;;6.89;64.89
30708;BME280;17458;48.958;8.284;2024-01-30T08:35:26;101857.22;;;7.01;64.73
30708;BME280;17458;48.958;8.284;2024-01-30T08:38:11;101862.94;;;7.16;64.82
30708;BME280;17458;48.958;8.284;2024-01-30T08:40:56;101864.38;;;7.22;64.62
30708;BME280;17458;48.958;8.284;2024-01-30T08:43:40;101861.47;;;7.39;64.80
30708;BME280;17458;48.958;8.284;2024-01-30T08:46:25;101871.91;;;7.28;64.61
30708;BME280;17458;48.958;8.284;2024-01-30T08:49:08;101860.88;;;7.03;65.15
30708;BME280;17458;48.958;8.284;2024-01-30T08:51:53;101872.78;;;6.98;66.02
30708;BME280;17458;48.958;8.284;2024-01-30T08:54:37;101869.38;;;7.19;65.44
30708;BME280;17458;48.958;8.284;2024-01-30T08:57:21;101868.59;;;7.20;64.36
30708;BME280;17458;48.958;8.284;2024-01-30T09:00:05;101871.78;;;7.36;64.95
30708;BME280;17458;48.958;8.284;2024-01-30T09:02:50;101873.63;;;7.47;64.77
30708;BME280;17458;48.958;8.284;2024-01-30T09:05:34;101881.16;;;7.63;64.48
30708;BME280;17458;48.958;8.284;2024-01-30T09:08:18;101872.41;;;7.85;63.50
30708;BME280;17458;48.958;8.284;2024-01-30T09:11:08;101872.13;;;7.92;63.87
30708;BME280;17458;48.958;8.284;2024-01-30T09:13:52;101874.28;;;7.86;64.26
30708;BME280;17458;48.958;8.284;2024-01-30T09:16:36;101887.69;;;8.09;64.00
30708;BME280;17458;48.958;8.284;2024-01-30T09:19:20;101877.34;;;8.22;64.15
30708;BME280;17458;48.958;8.284;2024-01-30T09:22:04;101873.03;;;8.12;64.02
30708;BME280;17458;48.958;8.284;2024-01-30T09:24:48;101876.53;;;8.33;63.75
30708;BME280;17458;48.958;8.284;2024-01-30T09:27:32;101878.09;;;8.31;63.83
30708;BME280;17458;48.958;8.284;2024-01-30T09:30:16;101877.03;;;8.49;64.07
30708;BME280;17458;48.958;8.284;2024-01-30T09:33:00;101872.38;;;8.47;64.27
30708;BME280;17458;48.958;8.284;2024-01-30T09:35:44;101867.50;;;8.73;63.57
30708;BME280;17458;48.958;8.284;2024-01-30T09:38:28;101863.97;;;8.84;63.39
30708;BME280;17458;48.958;8.284;2024-01-30T09:41:12;101870.91;;;9.04;62.95
30708;BME280;17458;48.958;8.284;2024-01-30T09:43:57;101867.22;;;9.36;62.87
30708;BME280;17458;48.958;8.284;2024-01-30T09:46:42;101876.63;;;9.20;62.85
30708;BME280;17458;48.958;8.284;2024-01-30T09:49:26;101871.59;;;9.35;62.79
30708;BME280;17458;48.958;8.284;2024-01-30T09:52:11;101876.91;;;9.35;62.96
30708;BME280;17458;48.958;8.284;2024-01-30T09:54:57;101872.06;;;9.86;61.91
30708;BME280;17458;48.958;8.284;2024-01-30T09:57:42;101883.16;;;9.81;61.76
30708;BME280;17458;48.958;8.284;2024-01-30T10:00:26;101894.34;;;10.12;61.87
30708;BME280;17458;48.958;8.284;2024-01-30T10:03:11;101885.16;;;10.07;60.62
30708;BME280;17458;48.958;8.284;2024-01-30T10:05:55;101889.25;;;9.68;61.84
30708;BME280;17458;48.958;8.284;2024-01-30T10:08:40;101897.25;;;10.03;61.64
30708;BME280;17458;48.958;8.284;2024-01-30T10:11:23;101895.50;;;9.92;61.43
30708;BME280;17458;48.958;8.284;2024-01-30T10:14:08;101899.38;;;10.19;61.28
30708;BME280;17458;48.958;8.284;2024-01-30T10:16:52;101901.13;;;10.18;61.66
30708;BME280;17458;48.958;8.284;2024-01-30T10:19:40;101896.03;;;10.21;61.63
30708;BME280;17458;48.958;8.284;2024-01-30T10:22:24;101909.72;;;10.04;60.60
30708;BME280;17458;48.958;8.284;2024-01-30T10:25:09;101906.69;;;9.88;61.09
30708;BME280;17458;48.958;8.284;2024-01-30T10:27:53;101897.44;;;9.83;61.63
30708;BME280;17458;48.958;8.284;2024-01-30T10:30:39;101894.72;;;10.16;61.24
30708;BME280;17458;48.958;8.284;2024-01-30T10:33:23;101900.03;;;9.59;62.65
30708;BME280;17458;48.958;8.284;2024-01-30T10:36:07;101887.66;;;9.82;62.40
30708;BME280;17458;48.958;8.284;2024-01-30T10:38:51;101886.63;;;10.15;61.04
30708;BME280;17458;48.958;8.284;2024-01-30T10:41:43;101885.53;;;10.23;60.90
30708;BME280;17458;48.958;8.284;2024-01-30T10:44:30;101886.47;;;10.23;60.74
30708;BME280;17458;48.958;8.284;2024-01-30T10:47:22;101881.81;;;10.09;60.80
30708;BME280;17458;48.958;8.284;2024-01-30T10:50:09;101894.19;;;10.20;61.12
30708;BME280;17458;48.958;8.284;2024-01-30T10:52:55;101886.91;;;10.64;59.96
30708;BME280;17458;48.958;8.284;2024-01-30T10:55:39;101895.34;;;10.47;60.25
30708;BME280;17458;48.958;8.284;2024-01-30T10:58:24;101886.63;;;10.73;59.94
30708;BME280;17458;48.958;8.284;2024-01-30T11:01:09;101884.56;;;11.17;58.49
30708;BME280;17458;48.958;8.284;2024-01-30T11:03:54;101872.06;;;11.16;58.55
30708;BME280;17458;48.958;8.284;2024-01-30T11:06:41;101885.09;;;11.25;58.71
30708;BME280;17458;48.958;8.284;2024-01-30T11:09:29;101878.31;;;11.42;57.92
30708;BME280;17458;48.958;8.284;2024-01-30T11:12:15;101878.53;;;11.45;57.89
30708;BME280;17458;48.958;8.284;2024-01-30T11:20:37;101873.03;;;11.55;56.47
30708;BME280;17458;48.958;8.284;2024-01-30T11:23:22;101863.38;;;12.06;56.07
30708;BME280;17458;48.958;8.284;2024-01-30T11:26:06;101868.75;;;11.82;56.55
30708;BME280;17458;48.958;8.284;2024-01-30T11:28:52;101869.19;;;11.13;58.16
30708;BME280;17458;48.958;8.284;2024-01-30T11:31:36;101876.63;;;11.80;56.32
30708;BME280;17458;48.958;8.284;2024-01-30T11:34:21;101868.66;;;11.06;58.44
30708;BME280;17458;48.958;8.284;2024-01-30T11:37:09;101870.19;;;11.77;56.22
30708;BME280;17458;48.958;8.284;2024-01-30T11:39:56;101869.81;;;12.23;55.69
30708;BME280;17458;48.958;8.284;2024-01-30T11:42:41;101868.25;;;11.87;56.15
30708;BME280;17458;48.958;8.284;2024-01-30T11:45:27;101867.91;;;12.21;56.09
30708;BME280;17458;48.958;8.284;2024-01-30T11:48:12;101865.84;;;12.17;55.92
30708;BME280;17458;48.958;8.284;2024-01-30T11:50:56;101861.91;;;12.51;55.28
30708;BME280;17458;48.958;8.284;2024-01-30T11:53:41;101854.88;;;12.93;54.75
30708;BME280;17458;48.958;8.284;2024-01-30T11:56:25;101852.75;;;12.87;55.18
30708;BME280;17458;48.958;8.284;2024-01-30T11:59:10;101848.50;;;13.04;53.91
30708;BME280;17458;48.958;8.284;2024-01-30T12:01:54;101840.16;;;13.40;53.57
30708;BME280;17458;48.958;8.284;2024-01-30T12:04:38;101838.53;;;13.42;53.46
30708;BME280;17458;48.958;8.284;2024-01-30T12:07:22;101830.97;;;13.50;53.79
30708;BME280;17458;48.958;8.284;2024-01-30T12:10:08;101825.69;;;13.09;54.99
30708;BME280;17458;48.958;8.284;2024-01-30T12:12:54;101818.81;;;13.40;54.26
30708;BME280;17458;48.958;8.284;2024-01-30T12:15:39;101813.53;;;13.27;54.51
30708;BME280;17458;48.958;8.284;2024-01-30T12:18:23;101814.63;;;13.59;54.04
30708;BME280;17458;48.958;8.284;2024-01-30T12:21:07;101808.25;;;13.57;54.12
30708;BME280;17458;48.958;8.284;2024-01-30T12:23:52;101808.56;;;13.19;54.67
30708;BME280;17458;48.958;8.284;2024-01-30T12:26:36;101818.31;;;12.77;55.00
30708;BME280;17458;48.958;8.284;2024-01-30T12:29:20;101815.66;;;13.18;54.94
30708;BME280;17458;48.958;8.284;2024-01-30T12:32:05;101818.09;;;12.87;54.63
30708;BME280;17458;48.958;8.284;2024-01-30T12:34:49;101819.06;;;13.02;53.34
30708;BME280;17458;48.958;8.284;2024-01-30T12:37:38;101814.75;;;12.76;54.03
30708;BME280;17458;48.958;8.284;2024-01-30T12:40:22;101819.28;;;12.92;54.32
30708;BME280;17458;48.958;8.284;2024-01-30T12:43:06;101817.31;;;13.03;54.38
30708;BME280;17458;48.958;8.284;2024-01-30T12:45:50;101816.13;;;13.12;53.77
30708;BME280;17458;48.958;8.284;2024-01-30T12:48:36;101819.06;;;13.02;53.85
30708;BME280;17458;48.958;8.284;2024-01-30T12:51:19;101820.41;;;12.96;54.28
30708;BME280;17458;48.958;8.284;2024-01-30T12:54:05;101821.94;;;13.48;53.29
30708;BME280;17458;48.958;8.284;2024-01-30T12:56:49;101809.47;;;13.06;54.17
30708;BME280;17458;48.958;8.284;2024-01-30T12:59:33;101811.44;;;13.36;54.03
30708;BME280;17458;48.958;8.284;2024-01-30T13:02:18;101806.66;;;13.31;54.02
30708;BME280;17458;48.958;8.284;2024-01-30T13:05:03;101803.47;;;13.80;53.25
30708;BME280;17458;48.958;8.284;2024-01-30T13:07:48;101803.03;;;13.73;52.94
30708;BME280;17458;48.958;8.284;2024-01-30T13:10:32;101806.53;;;13.87;52.57
30708;BME280;17458;48.958;8.284;2024-01-30T13:13:16;101811.66;;;13.83;52.98
30708;BME280;17458;48.958;8.284;2024-01-30T13:16:00;101810.66;;;13.67;53.06
30708;BME280;17458;48.958;8.284;2024-01-30T13:18:44;101809.28;;;14.03;52.52
30708;BME280;17458;48.958;8.284;2024-01-30T13:21:28;101810.94;;;13.71;53.82
30708;BME280;17458;48.958;8.284;2024-01-30T13:24:13;101805.19;;;13.51;54.04
30708;BME280;17458;48.958;8.284;2024-01-30T13:26:57;101808.69;;;14.08;52.90
30708;BME280;17458;48.958;8.284;2024-01-30T13:29:41;101819.88;;;14.01;52.97
30708;BME280;17458;48.958;8.284;2024-01-30T13:32:25;101812.44;;;14.27;52.59
30708;BME280;17458;48.958;8.284;2024-01-30T13:35:10;101819.13;;;13.74;53.70
30708;BME280;17458;48.958;8.284;2024-01-30T13:37:54;101816.13;;;14.29;52.52
30708;BME280;17458;48.958;8.284;2024-01-30T13:40:38;101817.50;;;14.37;52.24
30708;BME280;17458;48.958;8.284;2024-01-30T13:43:22;101821.50;;;14.14;53.13
30708;BME280;17458;48.958;8.284;2024-01-30T13:46:06;101815.81;;;14.53;52.34
30708;BME280;17458;48.958;8.284;2024-01-30T13:48:50;101813.91;;;14.51;52.63
30708;BME280;17458;48.958;8.284;2024-01-30T13:51:35;101816.47;;;14.49;51.93
30708;BME280;17458;48.958;8.284;2024-01-30T13:54:19;101812.56;;;14.13;53.02
30708;BME280;17458;48.958;8.284;2024-01-30T13:57:04;101806.78;;;13.91;53.48
30708;BME280;17458;48.958;8.284;2024-01-30T13:59:48;101803.38;;;13.79;53.25
30708;BME280;17458;48.958;8.284;2024-01-30T14:02:33;101812.09;;;14.20;53.00
30708;BME280;17458;48.958;8.284;2024-01-30T14:05:16;101812.31;;;14.54;52.17
30708;BME280;17458;48.958;8.284;2024-01-30T14:08:01;101816.38;;;14.33;52.60
30708;BME280;17458;48.958;8.284;2024-01-30T14:10:45;101813.00;;;14.21;53.48
30708;BME280;17458;48.958;8.284;2024-01-30T14:13:29;101814.03;;;14.23;52.92
30708;BME280;17458;48.958;8.284;2024-01-30T14:16:14;101816.16;;;14.14;53.35
30708;BME280;17458;48.958;8.284;2024-01-30T14:18:59;101812.78;;;14.02;53.40
30708;BME280;17458;48.958;8.284;2024-01-30T14:21:43;101815.78;;;14.23;53.62
30708;BME280;17458;48.958;8.284;2024-01-30T14:24:26;101816.03;;;14.27;53.13
30708;BME280;17458;48.958;8.284;2024-01-30T14:27:10;101814.22;;;14.41;52.90
30708;BME280;17458;48.958;8.284;2024-01-30T14:29:55;101816.25;;;14.15;53.56
30708;BME280;17458;48.958;8.284;2024-01-30T14:32:40;101817.16;;;14.31;53.04